Time;durP1;ratioP1;P1;durP2;ratioP2;P2;SDS_P1;SDS_P2;PMS_P1;PMS_P2;Temp;Humidity;BMP_temperature;BMP_pressure;BME280_temperature;BME280_humidity;BME280_pressure;Samples;Min_cycle;Max_cycle;Signal;HPM_P1;HPM_P2
2024/01/22 00:02:02;;;;;;;51.87;17.53;;;;;;;;;;5053115;28;20200;-84
2024/01/22 00:04:29;;;;;;;44.07;16.27;;;;;;;;;;5019313;28;20198;-85
2024/01/22 00:06:56;;;;;;;85.43;34.73;;;;;;;;;;5035673;28;20216;-85
2024/01/22 00:09:23;;;;;;;50.77;15.80;;;;;;;;;;5053523;28;20200;-85
2024/01/22 00:11:50;;;;;;;54.10;18.03;;;;;;;;;;5052176;28;20211;-84
2024/01/22 00:14:17;;;;;;;60.20;18.60;;;;;;;;;;5052199;28;20204;-85
2024/01/22 00:16:45;;;;;;;48.13;17.70;;;;;;;;;;5052951;28;20188;-85
2024/01/22 00:19:12;;;;;;;33.90;15.17;;;;;;;;;;5054374;28;20223;-85
2024/01/22 00:21:42;;;;;;;42.23;15.77;;;;;;;;;;5057484;28;20250;-84
2024/01/22 00:24:09;;;;;;;50.97;15.13;;;;;;;;;;5039408;28;20188;-82
2024/01/22 00:26:37;;;;;;;40.00;13.50;;;;;;;;;;5055741;28;20714;-83
2024/01/22 00:29:04;;;;;;;41.07;18.87;;;;;;;;;;5055762;28;20292;-87
2024/01/22 00:31:31;;;;;;;50.27;15.93;;;;;;;;;;5039293;28;20207;-87
2024/01/22 00:33:58;;;;;;;43.77;15.07;;;;;;;;;;5056757;28;20661;-87
2024/01/22 00:36:26;;;;;;;52.43;15.67;;;;;;;;;;5057103;28;20223;-87
2024/01/22 00:38:53;;;;;;;218.50;64.30;;;;;;;;;;5055718;28;20200;-87
2024/01/22 00:41:20;;;;;;;276.43;114.17;;;;;;;;;;5055549;28;20196;-87
2024/01/22 00:43:47;;;;;;;50.67;21.47;;;;;;;;;;5055609;28;20609;-87
2024/01/22 00:46:14;;;;;;;31.70;13.73;;;;;;;;;;5056509;28;20687;-86
2024/01/22 00:48:42;;;;;;;40.03;13.67;;;;;;;;;;5056552;28;20220;-87
2024/01/22 00:51:10;;;;;;;34.63;13.87;;;;;;;;;;5056524;28;20562;-82
2024/01/22 00:53:37;;;;;;;104.80;39.33;;;;;;;;;;5056438;28;20203;-82
2024/01/22 00:56:04;;;;;;;43.03;15.80;;;;;;;;;;5055249;28;20193;-81
2024/01/22 00:58:36;;;;;;;63.87;17.70;;;;;;;;;;5056998;28;20215;-82
2024/01/22 01:01:04;;;;;;;38.07;14.73;;;;;;;;;;5055866;28;20228;-83
2024/01/22 01:03:31;;;;;;;38.90;14.57;;;;;;;;;;5055225;28;20203;-83
2024/01/22 01:05:59;;;;;;;61.93;20.23;;;;;;;;;;5055955;28;20203;-83
2024/01/22 01:08:26;;;;;;;54.30;16.87;;;;;;;;;;5056216;28;20216;-83
2024/01/22 01:10:53;;;;;;;37.57;14.50;;;;;;;;;;5055764;28;20200;-83
2024/01/22 01:13:20;;;;;;;40.50;14.00;;;;;;;;;;5054989;28;20285;-83
2024/01/22 01:15:48;;;;;;;52.43;21.23;;;;;;;;;;5054748;28;20197;-83
2024/01/22 01:18:15;;;;;;;39.80;13.63;;;;;;;;;;5056019;28;20224;-84
2024/01/22 01:20:42;;;;;;;30.83;12.40;;;;;;;;;;5055819;28;20200;-84
2024/01/22 01:23:09;;;;;;;37.17;14.50;;;;;;;;;;5055240;28;20192;-87
2024/01/22 01:25:37;;;;;;;67.97;19.57;;;;;;;;;;5054768;28;20677;-82
2024/01/22 01:28:04;;;;;;;47.87;15.97;;;;;;;;;;5055785;28;20277;-82
2024/01/22 01:30:31;;;;;;;56.60;17.00;;;;;;;;;;5055580;28;20203;-83
2024/01/22 01:32:58;;;;;;;39.13;15.20;;;;;;;;;;5054330;28;20200;-83
2024/01/22 01:35:26;;;;;;;43.63;14.70;;;;;;;;;;5055648;28;20304;-83
2024/01/22 01:37:53;;;;;;;45.60;18.00;;;;;;;;;;5055442;28;20200;-84
2024/01/22 01:40:20;;;;;;;41.53;14.53;;;;;;;;;;5055620;28;20197;-84
2024/01/22 01:42:47;;;;;;;51.10;15.20;;;;;;;;;;5055080;28;20200;-83
2024/01/22 01:45:15;;;;;;;54.47;16.10;;;;;;;;;;5055522;28;20280;-83
2024/01/22 01:47:45;;;;;;;158.83;51.40;;;;;;;;;;5054952;28;20285;-83
2024/01/22 01:50:19;;;;;;;59.60;17.13;;;;;;;;;;5055605;28;20184;-83
2024/01/22 01:52:46;;;;;;;47.20;15.63;;;;;;;;;;5054529;28;20203;-83
2024/01/22 01:55:14;;;;;;;36.40;12.20;;;;;;;;;;5055271;28;20277;-83
2024/01/22 01:57:41;;;;;;;58.77;18.13;;;;;;;;;;5053735;28;20211;-79
2024/01/22 02:00:15;;;;;;;43.73;16.10;;;;;;;;;;5055242;28;20225;-80
2024/01/22 02:02:42;;;;;;;44.77;15.83;;;;;;;;;;5054871;28;20672;-85
2024/01/22 02:05:09;;;;;;;47.50;14.67;;;;;;;;;;5053906;28;20200;-84
2024/01/22 02:07:36;;;;;;;53.77;15.40;;;;;;;;;;5054990;28;20298;-85
2024/01/22 02:10:04;;;;;;;59.50;22.60;;;;;;;;;;5053935;28;20242;-85
2024/01/22 02:12:31;;;;;;;42.07;14.37;;;;;;;;;;5054071;28;20203;-86
2024/01/22 02:14:58;;;;;;;53.53;16.13;;;;;;;;;;5054045;28;20203;-86
2024/01/22 02:17:25;;;;;;;43.87;13.80;;;;;;;;;;5055040;28;20667;-86
2024/01/22 02:19:53;;;;;;;180.10;58.20;;;;;;;;;;5054690;28;20188;-85
2024/01/22 02:22:20;;;;;;;50.33;15.13;;;;;;;;;;5055108;28;20193;-85
2024/01/22 02:24:47;;;;;;;43.40;13.13;;;;;;;;;;5054710;28;20208;-85
2024/01/22 02:27:15;;;;;;;50.30;16.20;;;;;;;;;;5054445;28;21159;-86
2024/01/22 02:29:42;;;;;;;55.77;16.90;;;;;;;;;;5054929;28;20192;-85
2024/01/22 02:32:09;;;;;;;129.60;63.47;;;;;;;;;;5054641;28;20199;-80
2024/01/22 02:34:37;;;;;;;34.77;13.70;;;;;;;;;;5054327;28;20629;-79
2024/01/22 02:37:04;;;;;;;34.83;13.23;;;;;;;;;;5054469;28;20559;-80
2024/01/22 02:39:32;;;;;;;27.03;11.80;;;;;;;;;;5054690;28;20204;-80
2024/01/22 02:41:59;;;;;;;26.43;11.37;;;;;;;;;;5052464;28;20210;-79
2024/01/22 02:44:26;;;;;;;25.93;13.20;;;;;;;;;;5054909;28;20213;-83
2024/01/22 02:46:53;;;;;;;31.47;12.83;;;;;;;;;;5054566;28;20210;-83
2024/01/22 02:49:21;;;;;;;29.10;11.37;;;;;;;;;;5054038;28;20235;-81
2024/01/22 02:51:48;;;;;;;25.70;11.13;;;;;;;;;;5054256;28;20196;-82
2024/01/22 02:54:15;;;;;;;39.80;15.53;;;;;;;;;;5054167;28;20207;-82
2024/01/22 02:56:42;;;;;;;32.13;13.10;;;;;;;;;;5053704;28;20231;-83
2024/01/22 02:59:10;;;;;;;35.93;12.70;;;;;;;;;;5053982;28;20232;-83
2024/01/22 03:01:37;;;;;;;31.37;11.97;;;;;;;;;;5052952;28;20227;-82
2024/01/22 03:04:04;;;;;;;36.93;12.27;;;;;;;;;;5053699;28;20196;-83
2024/01/22 03:06:31;;;;;;;45.73;15.60;;;;;;;;;;5054055;28;20250;-82
2024/01/22 03:08:59;;;;;;;30.30;12.20;;;;;;;;;;5052611;28;20224;-82
2024/01/22 03:11:26;;;;;;;25.50;11.00;;;;;;;;;;5054040;28;20261;-82
2024/01/22 03:13:54;;;;;;;33.50;12.43;;;;;;;;;;5052501;28;20204;-81
2024/01/22 03:16:21;;;;;;;58.50;24.80;;;;;;;;;;5053883;28;20203;-82
2024/01/22 03:18:48;;;;;;;24.67;10.17;;;;;;;;;;5053535;28;20215;-82
2024/01/22 03:21:15;;;;;;;25.97;10.87;;;;;;;;;;5053169;28;20206;-82
2024/01/22 03:23:43;;;;;;;28.10;11.83;;;;;;;;;;5053158;28;20191;-81
2024/01/22 03:26:23;;;;;;;28.90;10.53;;;;;;;;;;5053175;28;20223;-82
2024/01/22 03:28:50;;;;;;;42.40;14.63;;;;;;;;;;5053467;28;20209;-82
2024/01/22 03:31:25;;;;;;;24.93;9.93;;;;;;;;;;5051936;28;20192;-82
2024/01/22 03:33:53;;;;;;;28.97;10.57;;;;;;;;;;5053182;28;20206;-82
2024/01/22 03:36:21;;;;;;;25.00;10.13;;;;;;;;;;5055429;28;20287;-82
2024/01/22 03:38:50;;;;;;;43.33;15.50;;;;;;;;;;5053745;28;20637;-82
2024/01/22 03:41:17;;;;;;;35.90;12.07;;;;;;;;;;5053185;28;20292;-82
2024/01/22 03:43:44;;;;;;;28.50;11.70;;;;;;;;;;5053200;28;20199;-85
2024/01/22 03:46:13;;;;;;;39.50;12.63;;;;;;;;;;5052126;28;20215;-84
2024/01/22 03:48:41;;;;;;;100.20;34.83;;;;;;;;;;5053799;28;20281;-83
2024/01/22 03:51:08;;;;;;;32.33;11.53;;;;;;;;;;5053381;28;20215;-83
2024/01/22 03:53:36;;;;;;;31.67;11.90;;;;;;;;;;5055073;28;20204;-79
2024/01/22 03:56:05;;;;;;;23.37;10.03;;;;;;;;;;5057389;28;20204;-83
2024/01/22 03:58:33;;;;;;;40.13;12.83;;;;;;;;;;5056227;28;20602;-83
2024/01/22 04:01:01;;;;;;;42.87;12.80;;;;;;;;;;5057402;28;20235;-83
2024/01/22 04:03:30;;;;;;;34.80;12.70;;;;;;;;;;5057372;28;20257;-83
2024/01/22 04:05:58;;;;;;;42.33;13.80;;;;;;;;;;5057449;28;20254;-83
2024/01/22 04:08:25;;;;;;;32.57;11.13;;;;;;;;;;5057285;28;20614;-83
2024/01/22 04:10:52;;;;;;;71.13;25.23;;;;;;;;;;5057308;28;20196;-82
2024/01/22 04:13:20;;;;;;;28.90;11.27;;;;;;;;;;5056301;28;20212;-83
2024/01/22 04:15:58;;;;;;;40.73;11.93;;;;;;;;;;5057263;28;20265;-82
2024/01/22 04:18:25;;;;;;;47.30;14.63;;;;;;;;;;5056990;28;20565;-83
2024/01/22 04:20:52;;;;;;;118.40;52.50;;;;;;;;;;5056745;28;20239;-83
2024/01/22 04:23:20;;;;;;;33.47;12.93;;;;;;;;;;5056941;28;20192;-81
2024/01/22 04:25:47;;;;;;;36.73;12.43;;;;;;;;;;5056718;28;20212;-81
2024/01/22 04:28:16;;;;;;;21.27;10.87;;;;;;;;;;5056503;28;20258;-81
2024/01/22 04:30:43;;;;;;;24.63;12.83;;;;;;;;;;5057268;28;20200;-82
2024/01/22 04:33:13;;;;;;;38.60;15.57;;;;;;;;;;5057155;28;20196;-81
2024/01/22 04:35:40;;;;;;;39.53;12.70;;;;;;;;;;5050737;28;20533;-81
2024/01/22 04:38:08;;;;;;;28.67;11.00;;;;;;;;;;5038769;28;20537;-81
2024/01/22 04:40:35;;;;;;;22.87;10.00;;;;;;;;;;5036970;28;20219;-81
2024/01/22 04:43:03;;;;;;;66.97;17.93;;;;;;;;;;5036907;28;20218;-81
2024/01/22 04:45:30;;;;;;;44.90;15.47;;;;;;;;;;5036547;28;20284;-81
2024/01/22 04:47:57;;;;;;;40.07;12.17;;;;;;;;;;5038172;28;20227;-81
2024/01/22 04:50:25;;;;;;;27.60;10.57;;;;;;;;;;5045934;28;20209;-80
2024/01/22 04:52:52;;;;;;;28.13;11.73;;;;;;;;;;5054105;28;20204;-80
2024/01/22 04:55:19;;;;;;;36.30;16.97;;;;;;;;;;5055802;28;20299;-81
2024/01/22 04:57:49;;;;;;;32.80;10.80;;;;;;;;;;5054002;28;20656;-82
2024/01/22 05:00:17;;;;;;;34.13;11.77;;;;;;;;;;5051190;28;20318;-80
2024/01/22 05:02:45;;;;;;;36.23;11.87;;;;;;;;;;5034975;28;20829;-81
2024/01/22 05:05:13;;;;;;;92.23;37.30;;;;;;;;;;5037623;28;20219;-81
2024/01/22 05:07:40;;;;;;;44.50;16.13;;;;;;;;;;5052252;28;20240;-81
2024/01/22 05:10:13;;;;;;;45.80;16.30;;;;;;;;;;5055316;28;20220;-82
2024/01/22 05:12:40;;;;;;;79.23;34.27;;;;;;;;;;5053337;28;20219;-82
2024/01/22 05:15:09;;;;;;;49.77;20.73;;;;;;;;;;5054985;28;20242;-81
2024/01/22 05:17:37;;;;;;;55.03;18.20;;;;;;;;;;5034742;28;20693;-80
2024/01/22 05:20:06;;;;;;;57.13;18.53;;;;;;;;;;5035192;28;20315;-80
2024/01/22 05:22:34;;;;;;;38.47;16.40;;;;;;;;;;5035176;28;20236;-81
2024/01/22 05:25:01;;;;;;;51.23;20.17;;;;;;;;;;5046757;28;20568;-81
2024/01/22 05:27:29;;;;;;;32.97;13.40;;;;;;;;;;5051038;28;20232;-81
2024/01/22 05:29:56;;;;;;;39.57;15.10;;;;;;;;;;5055821;28;20243;-82
2024/01/22 05:32:23;;;;;;;48.77;20.40;;;;;;;;;;5055280;28;20705;-82
2024/01/22 05:34:50;;;;;;;37.10;15.60;;;;;;;;;;5054230;28;20230;-82
2024/01/22 05:37:18;;;;;;;48.67;20.33;;;;;;;;;;5055743;28;20243;-82
2024/01/22 05:39:45;;;;;;;42.43;15.80;;;;;;;;;;5056023;28;20296;-82
2024/01/22 05:42:12;;;;;;;41.70;22.63;;;;;;;;;;5057125;28;20243;-82
2024/01/22 05:44:39;;;;;;;31.60;17.17;;;;;;;;;;5050433;28;20244;-83
2024/01/22 05:47:06;;;;;;;40.03;16.33;;;;;;;;;;5050003;28;20239;-85
2024/01/22 05:49:33;;;;;;;32.20;14.63;;;;;;;;;;5047664;28;20220;-84
2024/01/22 05:52:01;;;;;;;32.23;15.53;;;;;;;;;;5039610;28;20240;-83
2024/01/22 05:54:29;;;;;;;48.90;22.00;;;;;;;;;;5043509;28;20224;-83
2024/01/22 05:56:57;;;;;;;34.37;13.60;;;;;;;;;;5039167;28;20209;-83
2024/01/22 05:59:24;;;;;;;38.73;15.00;;;;;;;;;;5052908;28;20727;-80
2024/01/22 06:01:54;;;;;;;29.47;12.67;;;;;;;;;;5077417;28;20672;-83
2024/01/22 06:04:22;;;;;;;33.50;14.23;;;;;;;;;;5060618;28;20219;-85
2024/01/22 06:06:50;;;;;;;39.37;15.90;;;;;;;;;;5072610;28;20703;-84
2024/01/22 06:09:17;;;;;;;70.83;20.80;;;;;;;;;;5072733;28;20239;-83
2024/01/22 06:11:44;;;;;;;39.30;15.77;;;;;;;;;;5061921;28;20218;-83
2024/01/22 06:14:11;;;;;;;28.00;11.63;;;;;;;;;;5062021;28;20219;-84
2024/01/22 06:16:39;;;;;;;42.13;18.03;;;;;;;;;;5053210;28;20224;-84
2024/01/22 06:19:06;;;;;;;36.60;13.57;;;;;;;;;;5054787;28;20215;-84
2024/01/22 06:21:33;;;;;;;41.50;14.23;;;;;;;;;;5054844;28;20195;-84
2024/01/22 06:24:00;;;;;;;27.57;12.10;;;;;;;;;;5054840;28;20204;-84
2024/01/22 06:26:29;;;;;;;44.40;15.27;;;;;;;;;;5054306;28;20729;-84
2024/01/22 06:28:59;;;;;;;37.83;14.60;;;;;;;;;;5054687;28;20248;-84
2024/01/22 06:31:26;;;;;;;28.90;12.20;;;;;;;;;;5037046;28;20275;-84
2024/01/22 06:33:53;;;;;;;144.67;53.50;;;;;;;;;;5036762;28;20195;-84
2024/01/22 06:36:20;;;;;;;33.40;17.47;;;;;;;;;;5054463;28;20246;-84
2024/01/22 06:38:47;;;;;;;31.77;13.43;;;;;;;;;;5054697;28;20223;-84
2024/01/22 06:41:18;;;;;;;29.70;11.73;;;;;;;;;;5054566;28;20196;-84
2024/01/22 06:43:45;;;;;;;27.53;11.80;;;;;;;;;;5054674;28;20188;-84
2024/01/22 06:46:13;;;;;;;23.53;11.70;;;;;;;;;;5036889;28;20196;-84
2024/01/22 06:48:40;;;;;;;33.00;13.87;;;;;;;;;;5054300;28;20695;-84
2024/01/22 06:51:09;;;;;;;31.77;12.60;;;;;;;;;;5053885;28;20638;-84
2024/01/22 06:53:37;;;;;;;30.57;13.67;;;;;;;;;;5054459;28;20199;-84
2024/01/22 06:56:05;;;;;;;28.07;12.60;;;;;;;;;;5036815;28;20201;-84
2024/01/22 06:58:32;;;;;;;28.90;13.87;;;;;;;;;;5053984;28;20192;-84
2024/01/22 07:00:59;;;;;;;33.70;13.07;;;;;;;;;;5054337;28;20239;-84
2024/01/22 07:03:26;;;;;;;40.03;13.87;;;;;;;;;;5054156;28;20249;-84
2024/01/22 07:05:54;;;;;;;37.60;15.00;;;;;;;;;;5036124;28;20204;-84
2024/01/22 07:08:21;;;;;;;136.77;49.97;;;;;;;;;;5054444;28;20269;-84
2024/01/22 07:10:49;;;;;;;34.03;14.63;;;;;;;;;;5054573;28;20212;-84
2024/01/22 07:13:15;;;;;;;41.93;16.43;;;;;;;;;;5054342;28;20262;-84
2024/01/22 07:15:43;;;;;;;41.03;14.03;;;;;;;;;;5036386;28;20192;-84
2024/01/22 07:18:10;;;;;;;31.13;12.20;;;;;;;;;;5053911;28;20641;-84
2024/01/22 07:20:38;;;;;;;31.57;13.90;;;;;;;;;;5054433;28;20200;-84
2024/01/22 07:23:05;;;;;;;65.73;18.93;;;;;;;;;;5053892;28;20199;-84
2024/01/22 07:25:36;;;;;;;84.50;46.50;;;;;;;;;;5053504;28;20198;-84
2024/01/22 07:28:04;;;;;;;28.73;12.63;;;;;;;;;;5053960;28;20637;-85
2024/01/22 07:30:31;;;;;;;39.93;13.80;;;;;;;;;;5053389;28;20223;-84
2024/01/22 07:32:59;;;;;;;38.87;14.37;;;;;;;;;;5036215;28;20196;-84
2024/01/22 07:35:26;;;;;;;25.83;11.30;;;;;;;;;;5036772;28;20226;-84
2024/01/22 07:37:54;;;;;;;71.90;26.50;;;;;;;;;;5053628;28;20645;-85
2024/01/22 07:40:21;;;;;;;36.33;12.37;;;;;;;;;;5053519;28;20211;-85
2024/01/22 07:42:48;;;;;;;33.30;12.30;;;;;;;;;;5053859;28;20279;-84
2024/01/22 07:45:15;;;;;;;31.37;11.77;;;;;;;;;;5053890;28;20200;-84
2024/01/22 07:47:43;;;;;;;23.73;10.97;;;;;;;;;;5036338;28;20196;-84
2024/01/22 07:50:13;;;;;;;30.40;13.37;;;;;;;;;;5053679;28;20545;-84
2024/01/22 07:52:41;;;;;;;43.17;14.23;;;;;;;;;;5036162;28;20204;-85
2024/01/22 07:55:13;;;;;;;37.93;15.20;;;;;;;;;;5053507;28;20192;-85
2024/01/22 07:57:40;;;;;;;36.80;12.87;;;;;;;;;;5053553;28;20238;-84
2024/01/22 08:00:11;;;;;;;37.43;14.63;;;;;;;;;;5053667;28;21299;-84
2024/01/22 08:02:42;;;;;;;39.80;13.70;;;;;;;;;;5019932;28;20207;-84
2024/01/22 08:05:13;;;;;;;28.70;10.97;;;;;;;;;;5019902;28;20188;-85
2024/01/22 08:07:42;;;;;;;37.70;12.97;;;;;;;;;;5053553;28;20180;-84
2024/01/22 08:10:10;;;;;;;75.73;27.87;;;;;;;;;;5036036;28;20229;-84
2024/01/22 08:12:37;;;;;;;29.17;11.43;;;;;;;;;;5019833;28;20204;-85
2024/01/22 08:15:04;;;;;;;46.80;13.67;;;;;;;;;;5036051;28;20222;-84
2024/01/22 08:17:31;;;;;;;28.33;11.47;;;;;;;;;;5053568;28;20204;-84
2024/01/22 08:19:59;;;;;;;36.73;12.33;;;;;;;;;;5053563;28;20207;-82
2024/01/22 08:22:26;;;;;;;43.27;16.40;;;;;;;;;;5053754;28;20250;-85
2024/01/22 08:24:53;;;;;;;173.40;82.50;;;;;;;;;;5054565;28;20196;-84
2024/01/22 08:27:20;;;;;;;36.47;15.10;;;;;;;;;;5058232;28;20645;-84
2024/01/22 08:29:48;;;;;;;51.70;19.53;;;;;;;;;;5045608;28;20289;-84
2024/01/22 08:32:15;;;;;;;47.57;19.83;;;;;;;;;;5059912;28;20192;-84
2024/01/22 08:34:42;;;;;;;130.40;46.40;;;;;;;;;;5053443;28;20200;-84
2024/01/22 08:37:09;;;;;;;41.60;21.50;;;;;;;;;;5052718;28;20215;-84
2024/01/22 08:39:37;;;;;;;31.33;14.40;;;;;;;;;;5054671;28;20188;-85
2024/01/22 08:42:04;;;;;;;35.67;17.40;;;;;;;;;;5056734;28;20609;-85
2024/01/22 08:44:31;;;;;;;45.50;21.70;;;;;;;;;;5039525;28;20212;-85
2024/01/22 08:46:58;;;;;;;49.47;23.90;;;;;;;;;;5056900;28;20200;-84
2024/01/22 08:49:25;;;;;;;43.10;25.23;;;;;;;;;;5056734;28;20219;-85
2024/01/22 08:51:52;;;;;;;26.67;13.37;;;;;;;;;;5056311;28;20200;-84
2024/01/22 08:54:20;;;;;;;25.43;11.60;;;;;;;;;;5039021;28;20200;-84
2024/01/22 08:56:47;;;;;;;26.93;12.00;;;;;;;;;;5056496;28;20198;-84
2024/01/22 08:59:17;;;;;;;58.03;23.30;;;;;;;;;;5055981;28;20597;-84
2024/01/22 09:01:44;;;;;;;17.70;9.40;;;;;;;;;;5056711;28;20184;-84
2024/01/22 09:04:14;;;;;;;32.50;12.77;;;;;;;;;;5056326;28;20242;-84
2024/01/22 09:06:41;;;;;;;34.33;12.97;;;;;;;;;;5056378;28;20204;-85
2024/01/22 09:09:09;;;;;;;34.60;12.87;;;;;;;;;;5038498;28;20216;-84
2024/01/22 09:11:36;;;;;;;24.97;11.43;;;;;;;;;;5056362;28;20207;-84
2024/01/22 09:14:04;;;;;;;28.03;11.53;;;;;;;;;;5056202;28;20196;-84
2024/01/22 09:16:31;;;;;;;32.77;11.73;;;;;;;;;;5055929;28;20207;-85
2024/01/22 09:18:58;;;;;;;21.60;9.80;;;;;;;;;;5055977;28;20192;-84
2024/01/22 09:21:25;;;;;;;28.23;13.23;;;;;;;;;;5055731;28;20742;-84
2024/01/22 09:23:52;;;;;;;109.20;44.13;;;;;;;;;;5056150;28;20196;-84
2024/01/22 09:26:19;;;;;;;20.50;12.30;;;;;;;;;;5056317;28;20696;-85
2024/01/22 09:28:48;;;;;;;27.33;10.60;;;;;;;;;;5056197;28;20196;-84
2024/01/22 09:31:15;;;;;;;21.27;9.67;;;;;;;;;;5055825;28;20606;-84
2024/01/22 09:33:42;;;;;;;19.10;8.17;;;;;;;;;;5056030;28;20188;-84
2024/01/22 09:36:10;;;;;;;27.27;11.23;;;;;;;;;;5055803;28;20211;-84
2024/01/22 09:38:40;;;;;;;31.97;11.20;;;;;;;;;;5055670;28;20262;-84
2024/01/22 09:41:08;;;;;;;21.97;10.03;;;;;;;;;;5037995;28;20231;-84
2024/01/22 09:43:37;;;;;;;18.37;9.20;;;;;;;;;;5038340;28;20188;-84
2024/01/22 09:46:04;;;;;;;27.63;9.93;;;;;;;;;;5038892;28;20707;-84
2024/01/22 09:48:35;;;;;;;22.50;10.43;;;;;;;;;;5055785;28;20200;-84
2024/01/22 09:51:05;;;;;;;56.13;15.50;;;;;;;;;;5055280;28;20231;-84
2024/01/22 09:53:35;;;;;;;41.40;12.30;;;;;;;;;;5055661;28;20196;-84
2024/01/22 09:56:04;;;;;;;35.07;11.67;;;;;;;;;;5055410;28;20196;-84
2024/01/22 09:58:38;;;;;;;90.00;35.07;;;;;;;;;;5055795;28;20200;-84
2024/01/22 10:01:10;;;;;;;30.93;10.87;;;;;;;;;;5018013;28;20240;-85
2024/01/22 10:03:39;;;;;;;35.40;11.60;;;;;;;;;;5036250;28;20200;-85
2024/01/22 10:06:06;;;;;;;21.90;9.53;;;;;;;;;;5035280;28;20220;-84
2024/01/22 10:08:33;;;;;;;34.40;13.20;;;;;;;;;;5035613;28;20203;-84
2024/01/22 10:11:02;;;;;;;31.70;10.90;;;;;;;;;;5035131;28;20216;-85
2024/01/22 10:13:30;;;;;;;38.77;12.10;;;;;;;;;;5035192;28;20196;-84
2024/01/22 10:16:08;;;;;;;26.43;10.57;;;;;;;;;;5033798;28;20217;-85
2024/01/22 10:18:36;;;;;;;45.80;25.20;;;;;;;;;;5034860;28;20177;-84
2024/01/22 10:21:03;;;;;;;32.27;12.87;;;;;;;;;;5035218;28;20205;-84
2024/01/22 10:23:31;;;;;;;18.87;8.30;;;;;;;;;;5034116;28;20231;-84
2024/01/22 10:26:09;;;;;;;18.63;7.60;;;;;;;;;;5035017;28;20204;-84
2024/01/22 10:28:36;;;;;;;20.80;9.27;;;;;;;;;;5033734;28;20189;-84
2024/01/22 10:31:05;;;;;;;24.97;13.47;;;;;;;;;;5034737;28;20224;-84
2024/01/22 10:33:33;;;;;;;28.97;12.73;;;;;;;;;;5033431;28;20926;-84
2024/01/22 10:36:17;;;;;;;36.00;15.07;;;;;;;;;;5033621;28;20244;-84
2024/01/22 10:38:47;;;;;;;27.40;11.10;;;;;;;;;;5017891;28;20189;-84
2024/01/22 10:41:19;;;;;;;57.83;26.97;;;;;;;;;;5035066;28;20239;-84
2024/01/22 10:43:47;;;;;;;32.27;13.60;;;;;;;;;;5033639;28;20195;-84
2024/01/22 10:46:15;;;;;;;70.57;33.50;;;;;;;;;;5034425;28;20596;-85
2024/01/22 10:48:43;;;;;;;104.80;44.03;;;;;;;;;;5033356;28;20279;-87
2024/01/22 10:51:14;;;;;;;90.67;37.23;;;;;;;;;;5034587;28;20213;-84
2024/01/22 10:53:43;;;;;;;262.70;124.47;;;;;;;;;;5033005;28;20215;-84
2024/01/22 10:56:17;;;;;;;124.57;47.33;;;;;;;;;;5033920;28;20556;-84
2024/01/22 10:58:48;;;;;;;124.37;44.63;;;;;;;;;;5034486;28;20200;-83
2024/01/22 11:01:24;;;;;;;145.60;58.90;;;;;;;;;;5036722;28;20188;-84
2024/01/22 11:03:55;;;;;;;77.40;36.93;;;;;;;;;;5036862;28;20176;-83
2024/01/22 11:06:27;;;;;;;144.20;66.00;;;;;;;;;;5054466;28;20193;-84
2024/01/22 11:08:56;;;;;;;201.03;93.03;;;;;;;;;;5054509;28;20187;-83
2024/01/22 11:11:26;;;;;;;34.73;16.70;;;;;;;;;;5054336;28;20212;-84
2024/01/22 11:14:02;;;;;;;66.07;31.57;;;;;;;;;;5036437;28;20204;-84
2024/01/22 11:16:30;;;;;;;34.40;18.03;;;;;;;;;;5037418;28;20645;-83
2024/01/22 11:19:01;;;;;;;83.23;34.77;;;;;;;;;;5053936;28;20203;-83
2024/01/22 11:21:40;;;;;;;26.63;16.17;;;;;;;;;;5053755;28;20252;-84
2024/01/22 11:24:22;;;;;;;27.47;9.80;;;;;;;;;;5053742;28;20226;-83
2024/01/22 11:26:52;;;;;;;20.00;8.03;;;;;;;;;;5036464;28;20210;-83
2024/01/22 11:29:26;;;;;;;19.47;8.03;;;;;;;;;;5053807;28;20766;-84
2024/01/22 11:31:54;;;;;;;38.73;15.73;;;;;;;;;;5036529;28;20257;-83
2024/01/22 11:34:40;;;;;;;24.27;10.53;;;;;;;;;;5036274;28;20215;-84
2024/01/22 11:37:12;;;;;;;21.63;9.40;;;;;;;;;;5036411;28;20199;-83
2024/01/22 11:39:41;;;;;;;21.70;9.60;;;;;;;;;;5053579;28;20204;-84
2024/01/22 11:42:18;;;;;;;23.17;9.13;;;;;;;;;;5053702;28;20188;-83
2024/01/22 11:44:50;;;;;;;22.33;8.87;;;;;;;;;;5053457;28;20195;-84
2024/01/22 11:47:21;;;;;;;24.57;9.17;;;;;;;;;;5036531;28;20192;-83
2024/01/22 11:49:53;;;;;;;21.00;9.13;;;;;;;;;;5053471;28;20623;-83
2024/01/22 11:52:23;;;;;;;21.30;8.83;;;;;;;;;;5035753;28;20208;-83
2024/01/22 11:55:00;;;;;;;25.03;11.90;;;;;;;;;;5053646;28;20196;-83
2024/01/22 11:57:31;;;;;;;23.07;10.67;;;;;;;;;;5053253;28;20196;-83
2024/01/22 12:00:04;;;;;;;21.03;9.17;;;;;;;;;;5053553;28;20251;-83
2024/01/22 12:02:39;;;;;;;19.67;8.63;;;;;;;;;;5036671;28;20567;-83
2024/01/22 12:05:12;;;;;;;34.40;13.93;;;;;;;;;;5036471;28;20196;-84
2024/01/22 12:07:41;;;;;;;30.60;11.30;;;;;;;;;;5053869;28;20192;-83
2024/01/22 12:10:25;;;;;;;40.17;11.27;;;;;;;;;;5035926;28;20691;-84
2024/01/22 12:13:03;;;;;;;23.63;9.33;;;;;;;;;;5053254;28;20277;-84
2024/01/22 12:15:32;;;;;;;57.33;20.60;;;;;;;;;;5056741;28;20263;-84
2024/01/22 12:18:02;;;;;;;29.50;13.60;;;;;;;;;;5039948;28;20258;-84
2024/01/22 12:20:34;;;;;;;35.93;14.50;;;;;;;;;;5039801;28;20212;-84
2024/01/22 12:23:06;;;;;;;88.17;43.53;;;;;;;;;;5040015;28;20187;-84
2024/01/22 12:25:40;;;;;;;25.77;13.50;;;;;;;;;;5057679;28;20181;-84
2024/01/22 12:28:11;;;;;;;27.27;13.67;;;;;;;;;;5056909;28;20245;-84
2024/01/22 12:30:42;;;;;;;24.60;11.80;;;;;;;;;;5056939;28;20215;-84
2024/01/22 12:33:24;;;;;;;20.57;10.87;;;;;;;;;;5039319;28;20711;-84
2024/01/22 12:36:11;;;;;;;18.37;7.73;;;;;;;;;;5056869;28;20193;-83
2024/01/22 12:38:50;;;;;;;23.53;9.73;;;;;;;;;;5039306;28;20637;-84
2024/01/22 12:41:18;;;;;;;26.80;12.90;;;;;;;;;;5056860;28;20180;-84
2024/01/22 12:43:46;;;;;;;19.57;9.63;;;;;;;;;;5056882;28;20211;-84
2024/01/22 12:46:17;;;;;;;37.13;22.03;;;;;;;;;;5056918;28;20258;-84
2024/01/22 12:48:44;;;;;;;28.40;12.80;;;;;;;;;;5056787;28;20258;-84
2024/01/22 12:51:18;;;;;;;28.87;11.87;;;;;;;;;;5056549;28;20238;-84
2024/01/22 12:53:49;;;;;;;20.53;10.43;;;;;;;;;;5057181;28;20279;-84
2024/01/22 12:56:17;;;;;;;32.17;15.93;;;;;;;;;;5056692;28;20187;-84
2024/01/22 12:58:44;;;;;;;24.67;10.00;;;;;;;;;;5038525;28;20220;-84
2024/01/22 13:01:13;;;;;;;20.13;8.70;;;;;;;;;;5045581;28;20318;-84
2024/01/22 13:03:40;;;;;;;66.33;33.80;;;;;;;;;;5038673;28;20729;-85
2024/01/22 13:06:07;;;;;;;95.57;41.57;;;;;;;;;;5057068;28;20197;-84
2024/01/22 13:08:35;;;;;;;46.93;20.70;;;;;;;;;;5069706;28;20198;-84
2024/01/22 13:11:03;;;;;;;43.37;14.53;;;;;;;;;;5085673;28;20714;-88
2024/01/22 13:13:30;;;;;;;37.80;13.57;;;;;;;;;;5077031;28;20195;-84
2024/01/22 13:15:58;;;;;;;32.57;12.00;;;;;;;;;;5076356;28;20222;-85
2024/01/22 13:18:43;;;;;;;46.07;15.93;;;;;;;;;;5058185;28;20199;-84
2024/01/22 13:21:11;;;;;;;24.57;10.77;;;;;;;;;;5075715;28;20667;-84
2024/01/22 13:23:38;;;;;;;25.87;11.83;;;;;;;;;;5076503;28;20257;-84
2024/01/22 13:26:08;;;;;;;122.47;34.83;;;;;;;;;;5075662;28;20195;-84
2024/01/22 13:28:36;;;;;;;85.60;36.93;;;;;;;;;;5058487;28;20194;-85
2024/01/22 13:31:04;;;;;;;20.37;11.43;;;;;;;;;;5075762;28;20226;-84
2024/01/22 13:33:31;;;;;;;17.17;8.77;;;;;;;;;;5068762;28;20204;-81
2024/01/22 13:35:59;;;;;;;18.03;8.97;;;;;;;;;;5067015;28;20195;-84
2024/01/22 13:38:28;;;;;;;14.07;8.67;;;;;;;;;;5070375;28;20675;-84
2024/01/22 13:40:56;;;;;;;21.83;10.40;;;;;;;;;;5060445;28;20235;-83
2024/01/22 13:43:23;;;;;;;31.20;9.50;;;;;;;;;;5073428;28;20571;-83
2024/01/22 13:45:51;;;;;;;22.53;8.73;;;;;;;;;;5067913;28;20273;-83
2024/01/22 13:48:18;;;;;;;22.03;8.73;;;;;;;;;;5063457;28;20247;-83
2024/01/22 13:50:45;;;;;;;72.63;26.37;;;;;;;;;;5062559;28;20241;-83
2024/01/22 13:53:13;;;;;;;20.80;8.53;;;;;;;;;;5068854;28;20238;-83
2024/01/22 13:55:40;;;;;;;22.67;8.73;;;;;;;;;;5073204;28;20234;-83
2024/01/22 13:58:07;;;;;;;66.47;29.97;;;;;;;;;;5056752;28;20230;-83
2024/01/22 14:00:36;;;;;;;51.23;26.83;;;;;;;;;;5074327;28;20246;-83
2024/01/22 14:03:04;;;;;;;29.03;13.27;;;;;;;;;;5075296;28;20275;-84
2024/01/22 14:05:32;;;;;;;21.87;10.50;;;;;;;;;;5074944;28;20564;-83
2024/01/22 14:08:02;;;;;;;66.87;32.00;;;;;;;;;;5074689;28;20258;-83
2024/01/22 14:10:30;;;;;;;25.67;8.87;;;;;;;;;;5074513;28;20582;-83
2024/01/22 14:12:57;;;;;;;39.87;17.03;;;;;;;;;;5075491;28;20235;-84
2024/01/22 14:15:26;;;;;;;19.43;7.97;;;;;;;;;;5074677;28;20227;-79
2024/01/22 14:17:54;;;;;;;21.80;10.17;;;;;;;;;;5074388;28;20320;-83
2024/01/22 14:20:22;;;;;;;21.57;9.97;;;;;;;;;;5038458;28;20660;-83
2024/01/22 14:22:50;;;;;;;69.83;23.53;;;;;;;;;;5071006;28;20277;-83
2024/01/22 14:25:19;;;;;;;24.73;9.97;;;;;;;;;;5073499;28;20232;-83
2024/01/22 14:27:48;;;;;;;21.43;9.73;;;;;;;;;;5074281;28;20231;-83